Time;durP1;ratioP1;P1;durP2;ratioP2;P2;SDS_P1;SDS_P2;PMS_P1;PMS_P2;Temp;Humidity;BMP_temperature;BMP_pressure;BME280_temperature;BME280_humidity;BME280_pressure;Samples;Min_cycle;Max_cycle;Signal;HPM_P1;HPM_P2
2023/11/23 00:00:39;;;;;;;12.50;10.20;;;4.10;99.90;;;;;;5038432;28;20435;-68
2023/11/23 00:03:05;;;;;;;15.37;10.90;;;4.00;99.90;;;;;;5042893;28;20242;-68
2023/11/23 00:05:31;;;;;;;13.67;10.03;;;4.00;99.90;;;;;;5038083;28;20204;-68
2023/11/23 00:07:58;;;;;;;15.30;11.40;;;4.00;99.90;;;;;;5041265;28;21293;-69
2023/11/23 00:10:23;;;;;;;15.00;10.97;;;4.00;99.90;;;;;;5043671;28;20186;-68
2023/11/23 00:12:49;;;;;;;16.17;10.10;;;4.00;99.90;;;;;;5041366;28;20933;-69
2023/11/23 00:15:15;;;;;;;18.17;12.43;;;4.00;99.90;;;;;;5041496;28;20699;-69
2023/11/23 00:17:40;;;;;;;14.60;10.10;;;4.00;99.90;;;;;;5037947;28;20250;-68
2023/11/23 00:20:06;;;;;;;20.47;10.97;;;4.00;99.90;;;;;;5038116;28;20195;-69
2023/11/23 00:22:33;;;;;;;15.17;11.13;;;4.10;99.90;;;;;;5038016;28;20601;-69
2023/11/23 00:24:59;;;;;;;17.33;11.73;;;4.00;99.90;;;;;;5037698;28;20454;-68
2023/11/23 00:27:24;;;;;;;12.63;9.87;;;4.10;99.90;;;;;;5042511;28;20480;-68
2023/11/23 00:29:51;;;;;;;15.80;10.20;;;4.20;99.90;;;;;;5038361;28;20430;-68
2023/11/23 00:32:17;;;;;;;13.80;10.00;;;4.10;99.90;;;;;;5038766;28;20208;-69
2023/11/23 00:34:43;;;;;;;13.03;9.47;;;4.20;99.90;;;;;;5044158;28;20430;-69
2023/11/23 00:37:09;;;;;;;17.13;10.83;;;4.10;99.90;;;;;;5041738;28;20508;-69
2023/11/23 00:39:36;;;;;;;13.20;9.53;;;4.20;99.90;;;;;;5042190;28;20194;-69
2023/11/23 00:42:02;;;;;;;15.70;10.60;;;4.20;99.90;;;;;;5043368;28;21709;-69
2023/11/23 00:44:33;;;;;;;12.83;10.23;;;4.20;99.90;;;;;;5040143;28;20831;-69
2023/11/23 00:46:59;;;;;;;14.77;10.20;;;4.20;99.90;;;;;;5037638;28;20558;-69
2023/11/23 00:49:24;;;;;;;15.47;10.73;;;4.20;99.90;;;;;;5039494;28;21025;-69
2023/11/23 00:51:50;;;;;;;11.87;10.03;;;4.30;99.90;;;;;;5040127;28;20515;-69
2023/11/23 00:54:15;;;;;;;15.13;10.53;;;4.30;99.90;;;;;;5035988;28;20275;-69
2023/11/23 00:56:41;;;;;;;13.77;9.57;;;4.40;99.90;;;;;;5041550;28;20194;-69
2023/11/23 00:59:06;;;;;;;14.03;10.30;;;4.30;99.90;;;;;;5039410;28;20203;-69
2023/11/23 01:01:32;;;;;;;14.57;10.57;;;4.20;99.90;;;;;;5045758;28;20184;-68
2023/11/23 01:03:58;;;;;;;13.13;9.63;;;4.30;99.90;;;;;;5034126;28;20207;-68
2023/11/23 01:06:23;;;;;;;12.00;9.57;;;4.30;99.90;;;;;;5034499;28;20198;-69
2023/11/23 01:08:49;;;;;;;14.80;9.73;;;4.40;99.90;;;;;;5038541;28;20751;-68
2023/11/23 01:11:15;;;;;;;12.77;9.73;;;4.40;99.90;;;;;;5036488;28;20672;-69
2023/11/23 01:13:41;;;;;;;12.83;9.60;;;4.30;99.90;;;;;;5040726;28;20246;-68
2023/11/23 01:16:07;;;;;;;13.47;10.23;;;4.30;99.90;;;;;;5036898;28;21420;-68
2023/11/23 01:18:33;;;;;;;12.43;10.00;;;4.20;99.90;;;;;;5039725;28;20565;-69
2023/11/23 01:20:59;;;;;;;13.20;9.63;;;4.20;99.90;;;;;;5038459;28;20997;-69
2023/11/23 01:23:24;;;;;;;14.37;9.23;;;4.10;99.90;;;;;;5041928;28;21023;-69
2023/11/23 01:25:50;;;;;;;12.63;9.50;;;4.10;99.90;;;;;;5041752;28;20578;-69
2023/11/23 01:28:15;;;;;;;13.17;8.47;;;4.10;99.90;;;;;;5039702;28;20750;-69
2023/11/23 01:30:41;;;;;;;15.90;9.77;;;4.10;99.90;;;;;;5042532;28;20528;-69
2023/11/23 01:33:07;;;;;;;12.97;9.77;;;4.10;99.90;;;;;;5038210;28;20661;-69
2023/11/23 01:35:33;;;;;;;13.20;8.87;;;4.10;99.90;;;;;;5039940;28;20183;-69
2023/11/23 01:37:58;;;;;;;11.60;8.40;;;4.00;99.90;;;;;;5044456;28;20513;-69
2023/11/23 01:40:24;;;;;;;11.77;9.17;;;4.20;99.90;;;;;;5042750;28;20238;-69
2023/11/23 01:42:49;;;;;;;15.33;10.40;;;4.20;99.90;;;;;;5040146;28;20208;-69
2023/11/23 01:45:15;;;;;;;16.17;9.97;;;4.20;99.90;;;;;;5039890;28;20226;-69
2023/11/23 01:47:43;;;;;;;16.83;10.10;;;4.20;99.90;;;;;;5040803;28;20625;-69
2023/11/23 01:50:09;;;;;;;12.53;9.97;;;4.10;99.90;;;;;;5045173;28;20226;-69
2023/11/23 01:52:36;;;;;;;18.30;9.60;;;4.10;99.90;;;;;;5042587;28;20480;-69
2023/11/23 01:55:06;;;;;;;13.60;10.20;;;4.10;99.90;;;;;;5040019;28;20516;-69
2023/11/23 01:57:35;;;;;;;15.20;10.23;;;4.20;99.90;;;;;;5037609;28;20450;-69
2023/11/23 02:00:02;;;;;;;13.23;9.87;;;4.20;99.90;;;;;;5042289;28;21213;-69
2023/11/23 02:02:29;;;;;;;17.10;11.13;;;4.20;99.90;;;;;;5039960;28;20536;-69
2023/11/23 02:04:58;;;;;;;14.43;10.00;;;4.10;99.90;;;;;;5038841;28;20450;-69
2023/11/23 02:07:25;;;;;;;14.83;10.10;;;4.20;99.90;;;;;;5040513;28;20465;-69
2023/11/23 02:09:50;;;;;;;14.60;10.63;;;4.10;99.90;;;;;;5038869;28;20465;-69
2023/11/23 02:12:18;;;;;;;16.97;10.00;;;4.00;99.90;;;;;;5043368;28;20465;-69
2023/11/23 02:14:44;;;;;;;15.23;9.63;;;4.00;99.90;;;;;;5042128;28;20186;-70
2023/11/23 02:17:20;;;;;;;13.70;10.00;;;4.00;99.90;;;;;;5039077;28;20435;-69
2023/11/23 02:19:47;;;;;;;13.97;9.60;;;3.90;99.90;;;;;;5036518;28;20468;-69
2023/11/23 02:22:13;;;;;;;14.97;10.23;;;3.70;99.90;;;;;;5040767;28;20418;-69
2023/11/23 02:24:39;;;;;;;12.50;10.17;;;3.90;99.90;;;;;;5042921;28;20430;-69
2023/11/23 02:27:06;;;;;;;16.57;11.30;;;3.70;99.90;;;;;;5040577;28;20462;-69
2023/11/23 02:29:32;;;;;;;13.40;10.53;;;3.70;99.90;;;;;;5041678;28;20453;-70
2023/11/23 02:31:58;;;;;;;15.40;11.97;;;3.70;99.90;;;;;;5037387;28;20837;-69
2023/11/23 02:34:24;;;;;;;14.37;10.80;;;3.70;99.90;;;;;;5037262;28;20685;-70
2023/11/23 02:36:50;;;;;;;15.43;11.43;;;3.80;99.90;;;;;;5042019;28;20440;-69
2023/11/23 02:39:15;;;;;;;12.50;9.80;;;3.90;99.90;;;;;;5041549;28;20294;-69
2023/11/23 02:41:42;;;;;;;13.93;11.13;;;3.70;99.90;;;;;;5039719;28;20521;-69
2023/11/23 02:44:08;;;;;;;14.70;10.70;;;3.70;99.90;;;;;;5042759;28;20249;-70
2023/11/23 02:46:33;;;;;;;14.03;10.00;;;3.80;99.90;;;;;;5042173;28;20414;-70
2023/11/23 02:48:59;;;;;;;14.30;9.83;;;3.80;99.90;;;;;;5044248;28;20792;-69
2023/11/23 02:51:27;;;;;;;18.53;11.03;;;3.70;99.90;;;;;;5044301;28;20239;-71
2023/11/23 02:53:53;;;;;;;17.27;11.20;;;3.80;99.90;;;;;;5041386;28;20208;-69
2023/11/23 02:56:23;;;;;;;13.50;10.50;;;3.80;99.90;;;;;;5042221;28;20475;-69
2023/11/23 02:58:49;;;;;;;13.10;10.10;;;3.80;99.90;;;;;;5043017;28;20176;-69
2023/11/23 03:01:15;;;;;;;16.50;11.33;;;3.60;99.90;;;;;;5043628;28;21613;-69
2023/11/23 03:03:46;;;;;;;15.33;10.77;;;3.60;99.90;;;;;;5042874;28;20438;-68
2023/11/23 03:06:12;;;;;;;15.60;11.20;;;3.70;99.90;;;;;;5041487;28;20183;-69
2023/11/23 03:08:37;;;;;;;14.80;11.03;;;3.70;99.90;;;;;;5042483;28;20477;-69
2023/11/23 03:11:04;;;;;;;15.07;10.80;;;3.70;99.90;;;;;;5039505;28;20214;-69
2023/11/23 03:13:30;;;;;;;15.70;11.67;;;3.70;99.90;;;;;;5038786;28;20541;-69
2023/11/23 03:16:07;;;;;;;17.10;11.10;;;3.70;99.90;;;;;;5041810;28;20533;-70
2023/11/23 03:18:33;;;;;;;13.67;10.00;;;3.70;99.90;;;;;;5037244;28;20269;-69
2023/11/23 03:20:59;;;;;;;15.60;11.20;;;3.50;99.90;;;;;;5038370;28;20473;-69
2023/11/23 03:23:24;;;;;;;15.03;11.10;;;3.40;99.90;;;;;;5041395;28;20464;-69
2023/11/23 03:25:50;;;;;;;15.30;11.20;;;3.40;99.90;;;;;;5042602;28;20602;-69
2023/11/23 03:28:15;;;;;;;15.73;10.10;;;3.40;99.90;;;;;;5044785;28;20579;-69
2023/11/23 03:30:41;;;;;;;14.63;10.67;;;3.40;99.90;;;;;;5041483;28;20187;-69
2023/11/23 03:33:06;;;;;;;13.50;10.20;;;3.50;99.90;;;;;;5043506;28;20606;-69
2023/11/23 03:35:32;;;;;;;16.53;11.03;;;3.50;99.90;;;;;;5044150;28;20598;-69
2023/11/23 03:37:58;;;;;;;14.10;11.00;;;3.50;99.90;;;;;;5045723;28;20579;-68
2023/11/23 03:40:23;;;;;;;17.80;11.13;;;3.50;99.90;;;;;;5046517;28;20196;-69
2023/11/23 03:42:49;;;;;;;17.10;11.50;;;3.60;99.90;;;;;;5045466;28;20453;-69
2023/11/23 03:45:15;;;;;;;18.33;13.30;;;3.50;99.90;;;;;;5040184;28;21002;-69
2023/11/23 03:47:40;;;;;;;13.60;9.80;;;3.60;99.90;;;;;;5040668;28;20211;-69
2023/11/23 03:50:06;;;;;;;15.43;10.50;;;3.60;99.90;;;;;;5039250;28;20436;-69
2023/11/23 03:52:32;;;;;;;16.23;11.60;;;3.50;99.90;;;;;;5043432;28;20270;-69
2023/11/23 03:54:58;;;;;;;14.13;10.43;;;3.50;99.90;;;;;;5046473;28;20421;-69
2023/11/23 03:57:23;;;;;;;17.93;12.20;;;3.50;99.90;;;;;;5043833;28;20185;-69
2023/11/23 03:59:49;;;;;;;15.23;11.20;;;3.40;99.90;;;;;;5043245;28;20180;-69
2023/11/23 04:02:14;;;;;;;14.13;11.00;;;3.30;99.90;;;;;;5042210;28;20192;-69
2023/11/23 04:04:40;;;;;;;16.50;10.63;;;3.30;99.90;;;;;;5046510;28;20561;-69
2023/11/23 04:07:05;;;;;;;15.13;12.23;;;3.30;99.90;;;;;;5043731;28;20253;-69
2023/11/23 04:09:31;;;;;;;15.97;11.87;;;3.30;99.90;;;;;;5043797;28;20187;-69
2023/11/23 04:11:57;;;;;;;16.70;12.17;;;3.30;99.90;;;;;;5043841;28;20271;-69
2023/11/23 04:14:27;;;;;;;17.50;12.47;;;3.20;99.90;;;;;;5042620;28;20258;-70
2023/11/23 04:16:53;;;;;;;16.10;12.07;;;3.20;99.90;;;;;;5044274;28;20373;-70
2023/11/23 04:19:19;;;;;;;15.53;11.87;;;3.30;99.90;;;;;;5041773;28;21131;-69
2023/11/23 04:21:44;;;;;;;14.27;12.30;;;3.30;99.90;;;;;;5045935;28;20707;-69
2023/11/23 04:24:10;;;;;;;15.80;11.83;;;3.30;99.90;;;;;;5041647;28;20678;-69
2023/11/23 04:26:36;;;;;;;13.20;10.40;;;3.30;99.90;;;;;;5041074;28;20787;-69
2023/11/23 04:29:01;;;;;;;14.50;11.47;;;3.30;99.90;;;;;;5040940;28;20549;-69
2023/11/23 04:31:27;;;;;;;17.13;12.77;;;3.40;99.90;;;;;;5049649;28;20922;-69
2023/11/23 04:33:52;;;;;;;18.10;11.43;;;3.30;99.90;;;;;;5041143;28;20606;-68
2023/11/23 04:36:18;;;;;;;18.23;11.47;;;3.30;99.90;;;;;;5040398;28;20235;-68
2023/11/23 04:38:43;;;;;;;16.40;12.50;;;3.20;99.90;;;;;;5040983;28;20230;-68
2023/11/23 04:41:09;;;;;;;15.87;11.47;;;3.20;99.90;;;;;;5046330;28;20190;-69
2023/11/23 04:43:37;;;;;;;17.73;13.23;;;3.30;99.90;;;;;;5041125;28;20274;-68
2023/11/23 04:46:02;;;;;;;17.00;11.83;;;3.30;99.90;;;;;;5040309;28;20190;-69
2023/11/23 04:48:28;;;;;;;16.03;12.00;;;3.30;99.90;;;;;;5044695;28;20465;-69
2023/11/23 04:50:54;;;;;;;16.40;11.80;;;3.30;99.90;;;;;;5043903;28;20210;-70
2023/11/23 04:53:20;;;;;;;15.00;11.33;;;3.30;99.90;;;;;;5041225;28;20455;-69
2023/11/23 04:55:46;;;;;;;15.13;11.10;;;3.20;99.90;;;;;;5042757;28;20185;-69
2023/11/23 04:58:11;;;;;;;16.50;10.73;;;3.10;99.90;;;;;;5043861;28;20715;-69
2023/11/23 05:00:37;;;;;;;18.80;11.87;;;3.20;99.90;;;;;;5044929;28;20426;-69
2023/11/23 05:03:04;;;;;;;15.60;10.50;;;3.20;99.90;;;;;;5042946;28;20208;-69
2023/11/23 05:05:29;;;;;;;20.03;12.57;;;3.10;99.90;;;;;;5043700;28;20649;-69
2023/11/23 05:07:55;;;;;;;17.10;11.80;;;3.20;99.90;;;;;;5044298;28;20473;-68
2023/11/23 05:10:20;;;;;;;15.00;11.10;;;3.20;99.90;;;;;;5040105;28;20188;-69
2023/11/23 05:12:46;;;;;;;13.90;10.77;;;3.00;99.90;;;;;;5042600;28;20724;-68
2023/11/23 05:15:12;;;;;;;13.60;10.17;;;3.00;99.90;;;;;;5037242;28;20219;-69
2023/11/23 05:17:38;;;;;;;16.63;11.07;;;3.10;99.90;;;;;;5039782;28;20189;-68
2023/11/23 05:20:04;;;;;;;16.03;11.00;;;3.10;99.90;;;;;;5043733;28;20787;-69
2023/11/23 05:22:30;;;;;;;15.77;10.60;;;3.20;99.90;;;;;;5043270;28;20503;-68
2023/11/23 05:24:56;;;;;;;16.07;10.90;;;3.20;99.90;;;;;;5040895;28;20443;-69
2023/11/23 05:27:21;;;;;;;16.70;10.03;;;3.20;99.90;;;;;;5038806;28;20700;-69
2023/11/23 05:29:47;;;;;;;16.67;10.90;;;3.10;99.90;;;;;;5038840;28;20444;-69
2023/11/23 05:32:13;;;;;;;13.67;9.83;;;3.00;99.90;;;;;;5037704;28;20176;-70
2023/11/23 05:34:39;;;;;;;16.20;10.87;;;3.10;99.90;;;;;;5038624;28;20192;-69
2023/11/23 05:37:04;;;;;;;12.87;10.70;;;3.20;99.90;;;;;;5039219;28;20182;-70
2023/11/23 05:39:30;;;;;;;15.57;10.20;;;3.20;99.90;;;;;;5037908;28;20184;-69
2023/11/23 05:41:56;;;;;;;14.27;9.53;;;3.20;99.90;;;;;;5042372;28;20758;-70
2023/11/23 05:44:21;;;;;;;15.00;11.00;;;3.20;99.90;;;;;;5037888;28;20239;-70
2023/11/23 05:46:47;;;;;;;16.90;11.80;;;3.20;99.90;;;;;;5037165;28;20266;-68
2023/11/23 05:49:13;;;;;;;14.33;10.60;;;3.20;99.90;;;;;;5038848;28;20261;-70
2023/11/23 05:51:41;;;;;;;14.03;10.40;;;3.10;99.90;;;;;;5039368;28;20556;-69
2023/11/23 05:54:11;;;;;;;16.07;10.50;;;3.20;99.90;;;;;;5039173;28;20542;-69
2023/11/23 05:56:36;;;;;;;15.50;10.70;;;3.30;99.90;;;;;;5038131;28;20415;-69
2023/11/23 05:59:02;;;;;;;12.40;10.00;;;3.20;99.90;;;;;;5037056;28;20561;-71
2023/11/23 06:01:27;;;;;;;14.80;10.57;;;3.20;99.90;;;;;;5037043;28;20533;-70
2023/11/23 06:03:53;;;;;;;13.80;10.20;;;3.20;99.90;;;;;;5042111;28;20231;-70
2023/11/23 06:06:20;;;;;;;14.30;9.80;;;3.30;99.90;;;;;;5039154;28;20185;-70
2023/11/23 06:08:46;;;;;;;13.60;10.20;;;3.30;99.90;;;;;;5036469;28;20220;-70
2023/11/23 06:11:12;;;;;;;12.70;9.70;;;3.30;99.90;;;;;;5043129;28;20434;-70
2023/11/23 06:13:37;;;;;;;12.43;8.63;;;3.30;99.90;;;;;;5043165;28;20977;-70
2023/11/23 06:16:04;;;;;;;16.00;9.33;;;3.30;99.90;;;;;;5033767;28;20184;-68
2023/11/23 06:18:30;;;;;;;11.43;8.30;;;3.20;99.90;;;;;;5038143;28;20178;-68
2023/11/23 06:20:55;;;;;;;12.83;9.07;;;3.40;99.90;;;;;;5043848;28;20502;-68
2023/11/23 06:23:22;;;;;;;12.50;8.80;;;3.40;99.90;;;;;;5042313;28;20235;-68
2023/11/23 06:25:48;;;;;;;18.67;8.47;;;3.40;99.90;;;;;;5042567;28;20190;-69
2023/11/23 06:28:15;;;;;;;12.23;8.60;;;3.40;99.90;;;;;;5039217;28;20467;-69
2023/11/23 06:30:40;;;;;;;11.50;8.40;;;3.50;99.90;;;;;;5044721;28;20438;-71
2023/11/23 06:33:06;;;;;;;11.10;8.13;;;3.30;99.90;;;;;;5037356;28;20455;-70
2023/11/23 06:35:32;;;;;;;11.20;7.27;;;3.30;99.90;;;;;;5041558;28;20506;-70
2023/11/23 06:37:57;;;;;;;13.97;8.97;;;3.30;99.90;;;;;;5036314;28;20188;-70
2023/11/23 06:40:23;;;;;;;12.40;8.97;;;3.40;99.90;;;;;;5036086;28;20187;-70
2023/11/23 06:42:48;;;;;;;10.50;7.60;;;3.50;99.90;;;;;;5036063;28;20224;-70
2023/11/23 06:45:17;;;;;;;9.37;7.20;;;3.30;99.90;;;;;;5035509;28;20263;-70
2023/11/23 06:47:43;;;;;;;10.10;7.60;;;3.20;99.90;;;;;;5035113;28;20191;-68
2023/11/23 06:50:11;;;;;;;10.40;7.40;;;3.20;99.90;;;;;;5032873;28;21113;-68
2023/11/23 06:52:37;;;;;;;11.80;8.27;;;3.40;99.90;;;;;;5041814;28;20196;-68
2023/11/23 06:55:03;;;;;;;9.70;7.67;;;3.40;99.90;;;;;;5038963;28;20911;-70
2023/11/23 06:57:28;;;;;;;17.03;8.83;;;3.50;99.90;;;;;;5037174;28;20185;-70
2023/11/23 06:59:54;;;;;;;10.97;7.87;;;3.60;99.90;;;;;;5039346;28;20418;-70
2023/11/23 07:02:19;;;;;;;11.27;8.03;;;3.50;99.90;;;;;;5040281;28;20352;-70
2023/11/23 07:04:45;;;;;;;10.93;8.80;;;3.60;99.90;;;;;;5043587;28;20189;-68
2023/11/23 07:07:10;;;;;;;13.63;9.10;;;3.50;99.90;;;;;;5042430;28;20264;-68
2023/11/23 07:09:36;;;;;;;12.67;9.90;;;3.60;99.90;;;;;;5044117;28;20225;-68
2023/11/23 07:12:02;;;;;;;13.30;9.80;;;3.60;99.90;;;;;;5043594;28;20203;-68
2023/11/23 07:14:28;;;;;;;10.50;8.30;;;3.60;99.90;;;;;;5038249;28;20369;-69
2023/11/23 07:16:55;;;;;;;14.60;9.10;;;3.70;99.90;;;;;;5040108;28;20469;-69
2023/11/23 07:19:20;;;;;;;15.87;10.10;;;3.70;99.90;;;;;;5037240;28;20191;-68
2023/11/23 07:21:48;;;;;;;12.43;8.80;;;3.80;99.90;;;;;;5039934;28;20908;-68
2023/11/23 07:24:14;;;;;;;10.37;8.50;;;3.80;99.90;;;;;;5037351;28;20215;-69
2023/11/23 07:26:39;;;;;;;20.07;11.00;;;3.90;99.90;;;;;;5039780;28;20937;-68
2023/11/23 07:29:05;;;;;;;14.83;10.97;;;4.00;99.90;;;;;;5042687;28;20279;-67
2023/11/23 07:31:31;;;;;;;14.10;10.30;;;3.90;99.90;;;;;;5044530;28;20179;-68
2023/11/23 07:33:59;;;;;;;16.20;10.70;;;3.90;99.90;;;;;;5037794;28;20474;-67
2023/11/23 07:36:26;;;;;;;12.50;9.33;;;4.00;99.90;;;;;;5039485;28;20260;-67
2023/11/23 07:38:52;;;;;;;17.70;10.37;;;4.10;99.90;;;;;;5043029;28;20434;-68
2023/11/23 07:41:18;;;;;;;16.57;10.93;;;4.10;99.90;;;;;;5030323;28;21606;-67
2023/11/23 07:43:46;;;;;;;15.60;10.93;;;4.10;99.90;;;;;;5039567;28;20250;-67
2023/11/23 07:46:12;;;;;;;15.67;10.33;;;4.20;99.90;;;;;;5039571;28;20433;-67
2023/11/23 07:48:37;;;;;;;15.40;11.30;;;4.30;99.90;;;;;;5043666;28;20458;-67
2023/11/23 07:51:03;;;;;;;15.97;10.43;;;4.30;99.90;;;;;;5042453;28;20658;-67
2023/11/23 07:53:30;;;;;;;13.83;10.20;;;4.30;99.90;;;;;;5039271;28;20208;-68
2023/11/23 07:55:57;;;;;;;14.43;10.50;;;4.40;99.90;;;;;;5039154;28;20245;-68
2023/11/23 07:58:23;;;;;;;12.30;10.50;;;4.50;99.90;;;;;;5044574;28;20422;-70
2023/11/23 08:00:49;;;;;;;20.87;11.20;;;4.50;99.90;;;;;;5042508;28;20429;-69
2023/11/23 08:03:14;;;;;;;14.87;10.30;;;4.50;99.90;;;;;;5035601;28;20531;-69
2023/11/23 08:05:42;;;;;;;13.90;9.87;;;4.60;99.90;;;;;;5041871;28;20427;-68
2023/11/23 08:08:07;;;;;;;15.00;11.63;;;4.60;99.90;;;;;;5038369;28;20242;-68
2023/11/23 08:10:33;;;;;;;15.00;11.30;;;4.70;99.90;;;;;;5043140;28;20924;-68
2023/11/23 08:12:58;;;;;;;13.90;10.77;;;4.70;99.90;;;;;;5038688;28;20204;-69
2023/11/23 08:15:24;;;;;;;17.67;10.97;;;4.70;99.90;;;;;;5041722;28;20180;-68
2023/11/23 08:17:50;;;;;;;14.47;10.90;;;4.70;99.90;;;;;;5041539;28;20524;-69
2023/11/23 08:20:16;;;;;;;13.33;9.83;;;4.80;99.90;;;;;;5040868;28;20287;-69
2023/11/23 08:22:41;;;;;;;14.23;10.70;;;4.80;99.90;;;;;;5041729;28;20450;-68
2023/11/23 08:25:08;;;;;;;16.80;9.80;;;4.80;99.90;;;;;;5043074;28;20184;-68
2023/11/23 08:27:34;;;;;;;12.50;9.20;;;4.80;99.90;;;;;;5043296;28;20200;-68
2023/11/23 08:30:02;;;;;;;16.03;11.40;;;4.80;99.90;;;;;;5039073;28;20518;-68
2023/11/23 08:32:28;;;;;;;15.17;10.73;;;4.80;99.90;;;;;;5040591;28;20419;-68
2023/11/23 08:34:54;;;;;;;15.13;11.00;;;4.90;99.90;;;;;;5040267;28;21148;-68
2023/11/23 08:37:19;;;;;;;13.37;9.60;;;4.80;99.90;;;;;;5041931;28;20184;-68
2023/11/23 08:39:46;;;;;;;12.40;8.40;;;4.90;99.90;;;;;;5040456;28;20654;-68
2023/11/23 08:42:12;;;;;;;13.17;8.60;;;4.80;99.90;;;;;;5041568;28;20184;-68
2023/11/23 08:44:38;;;;;;;11.30;8.80;;;4.80;99.90;;;;;;5044881;28;20492;-68
2023/11/23 08:47:03;;;;;;;12.40;9.40;;;4.80;99.90;;;;;;5040452;28;20956;-67
2023/11/23 08:49:31;;;;;;;12.77;9.80;;;4.80;99.90;;;;;;5038277;28;20184;-68
2023/11/23 08:51:57;;;;;;;11.33;9.07;;;4.90;99.90;;;;;;5044801;28;20270;-68
2023/11/23 08:54:22;;;;;;;12.67;9.83;;;4.90;99.90;;;;;;5040438;28;20917;-68
2023/11/23 08:56:48;;;;;;;12.00;8.90;;;4.90;99.90;;;;;;5038761;28;20551;-69
2023/11/23 08:59:14;;;;;;;12.37;8.10;;;4.90;99.90;;;;;;5036219;28;20183;-69
2023/11/23 09:01:39;;;;;;;12.03;8.30;;;4.90;99.90;;;;;;5038074;28;20184;-68
2023/11/23 09:04:05;;;;;;;10.97;8.17;;;4.90;99.90;;;;;;5039391;28;20472;-68
2023/11/23 09:06:31;;;;;;;13.20;8.47;;;5.10;99.90;;;;;;5039916;28;20193;-67
2023/11/23 09:09:00;;;;;;;13.37;9.40;;;5.00;99.90;;;;;;5043628;28;20264;-68
2023/11/23 09:11:26;;;;;;;12.53;9.17;;;5.00;99.90;;;;;;5035309;28;20263;-69
2023/11/23 09:13:52;;;;;;;12.30;9.20;;;5.10;99.90;;;;;;5040453;28;20548;-69
2023/11/23 09:16:21;;;;;;;10.80;8.60;;;5.10;99.90;;;;;;5038214;28;20188;-70
2023/11/23 09:18:47;;;;;;;11.60;8.60;;;5.20;99.90;;;;;;5039171;28;20901;-69
2023/11/23 09:21:12;;;;;;;13.10;8.07;;;5.20;99.90;;;;;;5035487;28;20435;-69
2023/11/23 09:23:38;;;;;;;12.33;8.43;;;5.30;99.90;;;;;;5043754;28;20594;-69
2023/11/23 09:26:05;;;;;;;12.30;8.63;;;5.30;99.90;;;;;;5041528;28;20238;-69
2023/11/23 09:28:31;;;;;;;10.83;7.87;;;5.30;99.90;;;;;;5035592;28;20231;-68
2023/11/23 09:30:56;;;;;;;13.20;8.10;;;5.40;99.90;;;;;;5040617;28;20433;-68
2023/11/23 09:33:22;;;;;;;9.73;7.63;;;5.50;99.90;;;;;;5039785;28;20231;-69
2023/11/23 09:35:48;;;;;;;7.60;6.13;;;5.60;99.90;;;;;;5039112;28;20191;-69
2023/11/23 09:38:14;;;;;;;9.83;6.80;;;5.60;99.90;;;;;;5038397;28;20196;-69
2023/11/23 09:40:40;;;;;;;8.17;5.60;;;5.70;99.90;;;;;;5039808;28;20253;-69
2023/11/23 09:43:07;;;;;;;9.50;6.17;;;5.80;99.90;;;;;;5040247;28;20453;-69
2023/11/23 09:45:33;;;;;;;7.37;5.57;;;5.80;99.90;;;;;;5038208;28;20442;-68
2023/11/23 09:48:01;;;;;;;6.67;5.10;;;5.80;99.90;;;;;;5038641;28;21809;-68
2023/11/23 09:50:28;;;;;;;6.80;5.37;;;5.70;99.90;;;;;;5032222;28;20778;-68
2023/11/23 09:52:57;;;;;;;9.13;5.63;;;5.80;99.90;;;;;;5038786;28;20550;-68
2023/11/23 09:55:25;;;;;;;8.00;5.60;;;5.90;99.90;;;;;;5036630;28;20423;-67
2023/11/23 09:57:51;;;;;;;6.87;5.10;;;5.80;99.90;;;;;;5039005;28;20437;-67
2023/11/23 10:00:18;;;;;;;6.67;5.17;;;5.90;99.90;;;;;;5037544;28;20442;-67
2023/11/23 10:02:48;;;;;;;7.27;5.20;;;5.80;99.90;;;;;;5039221;28;21092;-68
2023/11/23 10:05:16;;;;;;;5.70;4.73;;;5.80;99.90;;;;;;5041889;28;20442;-68
2023/11/23 10:07:43;;;;;;;8.43;4.60;;;5.80;99.90;;;;;;5037431;28;20826;-67
2023/11/23 10:10:10;;;;;;;6.00;4.67;;;5.80;99.90;;;;;;5040054;28;20425;-68
2023/11/23 10:12:36;;;;;;;6.40;4.67;;;5.90;99.90;;;;;;5038815;28;20438;-67
2023/11/23 10:15:02;;;;;;;7.60;5.67;;;5.90;99.90;;;;;;5037960;28;20465;-69
2023/11/23 10:17:29;;;;;;;8.20;5.43;;;6.00;99.90;;;;;;5041480;28;20429;-71
2023/11/23 10:20:15;;;;;;;7.53;5.63;;;6.10;99.90;;;;;;5042400;28;20521;-68
2023/11/23 10:22:48;;;;;;;10.40;7.00;;;6.10;99.90;;;;;;5042570;28;20450;-67
2023/11/23 10:25:32;;;;;;;8.67;6.30;;;6.20;99.90;;;;;;5044949;28;20414;-67
2023/11/23 10:27:59;;;;;;;6.43;5.53;;;6.40;99.90;;;;;;5037636;28;20831;-68
2023/11/23 10:30:26;;;;;;;10.30;6.73;;;6.40;99.90;;;;;;5038852;28;20492;-70
2023/11/23 10:32:59;;;;;;;8.37;6.63;;;6.40;99.90;;;;;;5052018;28;20451;-68
2023/11/23 10:35:34;;;;;;;9.37;7.03;;;6.30;99.90;;;;;;5042976;28;20438;-68
2023/11/23 10:38:00;;;;;;;8.93;6.43;;;6.30;99.90;;;;;;5039061;28;20471;-69
2023/11/23 10:40:28;;;;;;;9.83;6.97;;;6.30;99.90;;;;;;5040506;28;20438;-68
2023/11/23 10:42:54;;;;;;;10.00;7.10;;;6.30;99.90;;;;;;5041217;28;21030;-70
2023/11/23 10:45:21;;;;;;;7.30;5.30;;;6.40;99.90;;;;;;5042458;28;20524;-70
2023/11/23 10:47:50;;;;;;;7.60;6.00;;;6.40;99.90;;;;;;5036906;28;21122;-70
2023/11/23 10:50:17;;;;;;;9.97;6.57;;;6.40;99.90;;;;;;5035724;28;20802;-69
2023/11/23 10:52:44;;;;;;;6.83;5.33;;;6.40;99.90;;;;;;5031779;28;20497;-69
2023/11/23 10:55:10;;;;;;;8.90;6.97;;;6.50;99.90;;;;;;5039488;28;20431;-69
2023/11/23 10:57:42;;;;;;;8.13;6.63;;;6.50;99.90;;;;;;5035831;28;20995;-69
2023/11/23 11:00:10;;;;;;;11.23;7.90;;;6.60;99.90;;;;;;5035185;28;20465;-69
2023/11/23 11:02:37;;;;;;;8.10;6.60;;;6.50;99.90;;;;;;5032936;28;20474;-67
2023/11/23 11:05:02;;;;;;;9.80;7.40;;;6.60;99.90;;;;;;5042460;28;20438;-67
2023/11/23 11:07:28;;;;;;;8.53;6.30;;;6.70;99.90;;;;;;5037694;28;20462;-68
2023/11/23 11:09:59;;;;;;;11.97;7.20;;;6.60;99.90;;;;;;5036970;28;20202;-69
2023/11/23 11:12:34;;;;;;;8.83;7.10;;;6.70;99.90;;;;;;5038390;28;20183;-68
2023/11/23 11:15:02;;;;;;;12.20;7.40;;;6.60;99.90;;;;;;5039155;28;20425;-67
2023/11/23 11:17:36;;;;;;;8.37;6.33;;;6.50;99.90;;;;;;5033413;28;20446;-67
2023/11/23 11:20:05;;;;;;;12.07;7.37;;;6.60;99.90;;;;;;5034204;28;21992;-67
2023/11/23 11:22:31;;;;;;;8.70;6.60;;;6.60;99.90;;;;;;5030948;28;20524;-68
2023/11/23 11:24:57;;;;;;;8.97;6.97;;;6.60;99.90;;;;;;5034877;28;20422;-68
2023/11/23 11:27:24;;;;;;;11.00;7.53;;;6.50;99.90;;;;;;5036083;28;20829;-66
2023/11/23 11:29:53;;;;;;;8.67;6.30;;;6.50;99.90;;;;;;5036481;28;20449;-68
2023/11/23 11:32:20;;;;;;;8.10;6.87;;;6.60;99.90;;;;;;5029438;28;20449;-68
2023/11/23 11:34:46;;;;;;;7.73;6.53;;;6.70;99.90;;;;;;5031435;28;20418;-67
2023/11/23 11:37:12;;;;;;;6.87;5.70;;;6.70;99.90;;;;;;5037905;28;20807;-67
2023/11/23 11:39:39;;;;;;;10.73;6.97;;;6.80;99.90;;;;;;5032862;28;20686;-68
2023/11/23 11:42:10;;;;;;;7.17;5.40;;;6.70;99.90;;;;;;5035877;28;20815;-68
2023/11/23 11:44:43;;;;;;;9.10;6.33;;;6.70;99.90;;;;;;5035899;28;20435;-68
2023/11/23 11:47:10;;;;;;;7.00;5.60;;;6.70;99.90;;;;;;5038033;28;20520;-69
2023/11/23 11:49:36;;;;;;;10.27;5.50;;;6.80;99.90;;;;;;5039097;28;20537;-69
2023/11/23 11:52:05;;;;;;;7.87;5.27;;;6.80;99.90;;;;;;5040280;28;20429;-68
2023/11/23 11:54:31;;;;;;;7.23;5.97;;;6.80;99.90;;;;;;5039870;28;20972;-68
2023/11/23 11:57:01;;;;;;;7.33;6.30;;;6.80;99.90;;;;;;5045334;28;20422;-68
2023/11/23 11:59:27;;;;;;;8.00;5.93;;;6.80;99.90;;;;;;5033345;28;20853;-68
2023/11/23 12:01:52;;;;;;;5.53;4.90;;;6.70;99.90;;;;;;5041799;28;20424;-68
2023/11/23 12:04:21;;;;;;;7.30;5.67;;;6.70;99.90;;;;;;5036237;28;20208;-68
2023/11/23 12:06:52;;;;;;;6.00;5.40;;;6.70;99.90;;;;;;5039999;28;20186;-68
2023/11/23 12:09:21;;;;;;;9.60;5.47;;;6.70;99.90;;;;;;5043713;28;20440;-68
2023/11/23 12:11:46;;;;;;;7.40;6.33;;;6.80;99.90;;;;;;5039740;28;20418;-68
2023/11/23 12:14:12;;;;;;;8.40;5.97;;;6.80;99.90;;;;;;5042227;28;20958;-67
2023/11/23 12:16:38;;;;;;;8.43;6.27;;;6.80;99.90;;;;;;5040341;28;20176;-67
2023/11/23 12:19:33;;;;;;;6.80;5.07;;;6.80;99.90;;;;;;5042397;28;20422;-67
2023/11/23 12:21:59;;;;;;;7.60;5.90;;;6.80;99.90;;;;;;5027957;28;20422;-67
2023/11/23 12:24:26;;;;;;;6.50;5.53;;;6.90;99.90;;;;;;5041847;28;20466;-67
2023/11/23 12:26:55;;;;;;;10.53;6.13;;;6.90;99.90;;;;;;5039681;28;20200;-67
2023/11/23 12:29:30;;;;;;;7.20;6.17;;;6.90;99.90;;;;;;5045271;28;20948;-67
2023/11/23 12:31:59;;;;;;;9.90;6.87;;;6.90;99.90;;;;;;5039315;28;20568;-67
2023/11/23 12:34:25;;;;;;;7.30;6.00;;;7.00;99.90;;;;;;5041677;28;20529;-67
2023/11/23 12:36:51;;;;;;;6.97;5.73;;;7.10;99.90;;;;;;5042373;28;20523;-67
2023/11/23 12:39:17;;;;;;;7.93;6.03;;;7.10;99.90;;;;;;5047375;28;20563;-66